sensor_id;sensor_type;location;lat;lon;timestamp;temperature;humidity
23685;DHT22;12020;51.384;6.908;2023-05-27T00:00:23;12.10;99.90
23685;DHT22;12020;51.384;6.908;2023-05-27T00:02:53;12.00;99.90
23685;DHT22;12020;51.384;6.908;2023-05-27T00:05:30;12.00;99.90
23685;DHT22;12020;51.384;6.908;2023-05-27T00:08:05;12.00;99.90
23685;DHT22;12020;51.384;6.908;2023-05-27T00:10:32;12.00;99.90
23685;DHT22;12020;51.384;6.908;2023-05-27T00:13:05;12.00;99.90
23685;DHT22;12020;51.384;6.908;2023-05-27T00:15:32;11.90;99.90
23685;DHT22;12020;51.384;6.908;2023-05-27T00:17:59;11.80;99.90
23685;DHT22;12020;51.384;6.908;2023-05-27T00:20:32;11.80;99.90
23685;DHT22;12020;51.384;6.908;2023-05-27T00:22:58;11.80;99.90
23685;DHT22;12020;51.384;6.908;2023-05-27T00:25:26;11.70;99.90
23685;DHT22;12020;51.384;6.908;2023-05-27T00:27:53;11.60;99.90
23685;DHT22;12020;51.384;6.908;2023-05-27T00:30:20;11.50;99.90
23685;DHT22;12020;51.384;6.908;2023-05-27T00:32:55;11.50;99.90
23685;DHT22;12020;51.384;6.908;2023-05-27T00:35:28;11.50;99.90
23685;DHT22;12020;51.384;6.908;2023-05-27T00:38:04;11.50;99.90
23685;DHT22;12020;51.384;6.908;2023-05-27T00:40:34;11.50;99.90
23685;DHT22;12020;51.384;6.908;2023-05-27T00:43:05;11.40;99.90
23685;DHT22;12020;51.384;6.908;2023-05-27T00:45:35;11.40;99.90
23685;DHT22;12020;51.384;6.908;2023-05-27T00:48:02;11.50;99.90
23685;DHT22;12020;51.384;6.908;2023-05-27T00:50:31;11.50;99.90
23685;DHT22;12020;51.384;6.908;2023-05-27T00:53:08;11.60;99.90
23685;DHT22;12020;51.384;6.908;2023-05-27T00:55:36;11.60;99.90
23685;DHT22;12020;51.384;6.908;2023-05-27T00:58:04;11.60;99.90
23685;DHT22;12020;51.384;6.908;2023-05-27T01:00:32;11.60;99.90
23685;DHT22;12020;51.384;6.908;2023-05-27T01:03:06;11.60;99.90
23685;DHT22;12020;51.384;6.908;2023-05-27T01:05:52;11.60;99.90
23685;DHT22;12020;51.384;6.908;2023-05-27T01:11:41;11.50;99.90
23685;DHT22;12020;51.384;6.908;2023-05-27T01:14:11;11.40;99.90
23685;DHT22;12020;51.384;6.908;2023-05-27T01:16:50;11.30;99.90
23685;DHT22;12020;51.384;6.908;2023-05-27T01:19:28;11.30;99.90
23685;DHT22;12020;51.384;6.908;2023-05-27T01:22:06;11.30;99.90
23685;DHT22;12020;51.384;6.908;2023-05-27T01:24:46;11.20;99.90
23685;DHT22;12020;51.384;6.908;2023-05-27T01:27:12;11.10;99.90
23685;DHT22;12020;51.384;6.908;2023-05-27T01:29:39;11.10;99.90
23685;DHT22;12020;51.384;6.908;2023-05-27T01:32:31;11.10;99.90
23685;DHT22;12020;51.384;6.908;2023-05-27T01:37:54;10.90;99.90
23685;DHT22;12020;51.384;6.908;2023-05-27T01:40:37;10.90;99.90
23685;DHT22;12020;51.384;6.908;2023-05-27T01:43:09;10.80;99.90
23685;DHT22;12020;51.384;6.908;2023-05-27T01:45:43;10.80;99.90
23685;DHT22;12020;51.384;6.908;2023-05-27T01:48:11;10.70;99.90
23685;DHT22;12020;51.384;6.908;2023-05-27T01:50:39;10.70;99.90
23685;DHT22;12020;51.384;6.908;2023-05-27T01:53:05;10.60;99.90
23685;DHT22;12020;51.384;6.908;2023-05-27T01:55:38;10.50;99.90
23685;DHT22;12020;51.384;6.908;2023-05-27T01:58:18;10.50;99.90
23685;DHT22;12020;51.384;6.908;2023-05-27T02:00:46;10.50;99.90
23685;DHT22;12020;51.384;6.908;2023-05-27T02:03:12;10.50;99.90
23685;DHT22;12020;51.384;6.908;2023-05-27T02:05:39;10.50;99.90
23685;DHT22;12020;51.384;6.908;2023-05-27T02:08:06;10.50;99.90
23685;DHT22;12020;51.384;6.908;2023-05-27T02:10:35;10.50;99.90
23685;DHT22;12020;51.384;6.908;2023-05-27T02:13:10;10.60;99.90
23685;DHT22;12020;51.384;6.908;2023-05-27T02:15:43;10.50;99.90
23685;DHT22;12020;51.384;6.908;2023-05-27T02:18:09;10.60;99.90
23685;DHT22;12020;51.384;6.908;2023-05-27T02:20:35;10.60;99.90
23685;DHT22;12020;51.384;6.908;2023-05-27T02:23:07;10.50;99.90
23685;DHT22;12020;51.384;6.908;2023-05-27T02:25:33;10.50;99.90
23685;DHT22;12020;51.384;6.908;2023-05-27T02:28:04;10.50;99.90
23685;DHT22;12020;51.384;6.908;2023-05-27T02:30:31;10.50;99.90
23685;DHT22;12020;51.384;6.908;2023-05-27T02:33:02;10.40;99.90
23685;DHT22;12020;51.384;6.908;2023-05-27T02:35:35;10.40;99.90
23685;DHT22;12020;51.384;6.908;2023-05-27T02:38:06;10.40;99.90
23685;DHT22;12020;51.384;6.908;2023-05-27T02:40:37;10.40;99.90
23685;DHT22;12020;51.384;6.908;2023-05-27T02:43:16;10.40;99.90
23685;DHT22;12020;51.384;6.908;2023-05-27T02:45:42;10.40;99.90
23685;DHT22;12020;51.384;6.908;2023-05-27T02:48:08;10.30;99.90
23685;DHT22;12020;51.384;6.908;2023-05-27T02:50:35;10.30;99.90
23685;DHT22;12020;51.384;6.908;2023-05-27T02:53:06;10.20;99.90
23685;DHT22;12020;51.384;6.908;2023-05-27T02:55:40;10.10;99.90
23685;DHT22;12020;51.384;6.908;2023-05-27T02:58:12;10.10;99.90
23685;DHT22;12020;51.384;6.908;2023-05-27T03:00:43;10.00;99.90
23685;DHT22;12020;51.384;6.908;2023-05-27T03:03:15;10.00;99.90
23685;DHT22;12020;51.384;6.908;2023-05-27T03:05:41;9.90;99.90
23685;DHT22;12020;51.384;6.908;2023-05-27T03:08:14;9.90;99.90
23685;DHT22;12020;51.384;6.908;2023-05-27T03:10:39;9.90;99.90
23685;DHT22;12020;51.384;6.908;2023-05-27T03:13:14;9.90;99.90
23685;DHT22;12020;51.384;6.908;2023-05-27T03:15:47;9.80;99.90
23685;DHT22;12020;51.384;6.908;2023-05-27T03:18:16;9.80;99.90
23685;DHT22;12020;51.384;6.908;2023-05-27T03:20:44;9.80;99.90
23685;DHT22;12020;51.384;6.908;2023-05-27T03:23:09;9.80;99.90
23685;DHT22;12020;51.384;6.908;2023-05-27T03:25:47;9.80;99.90
23685;DHT22;12020;51.384;6.908;2023-05-27T03:28:16;9.70;99.90
23685;DHT22;12020;51.384;6.908;2023-05-27T03:30:43;9.70;99.90
23685;DHT22;12020;51.384;6.908;2023-05-27T03:33:10;9.60;99.90
23685;DHT22;12020;51.384;6.908;2023-05-27T03:35:36;9.60;99.90
23685;DHT22;12020;51.384;6.908;2023-05-27T03:38:02;9.50;99.90
23685;DHT22;12020;51.384;6.908;2023-05-27T03:40:29;9.50;99.90
23685;DHT22;12020;51.384;6.908;2023-05-27T03:43:00;9.50;99.90
23685;DHT22;12020;51.384;6.908;2023-05-27T03:45:37;9.50;99.90
23685;DHT22;12020;51.384;6.908;2023-05-27T03:48:09;9.50;99.90
23685;DHT22;12020;51.384;6.908;2023-05-27T03:50:39;9.60;99.90
23685;DHT22;12020;51.384;6.908;2023-05-27T03:53:05;9.50;99.90
23685;DHT22;12020;51.384;6.908;2023-05-27T03:55:31;9.50;99.90
23685;DHT22;12020;51.384;6.908;2023-05-27T03:58:03;9.60;99.90
23685;DHT22;12020;51.384;6.908;2023-05-27T04:00:31;9.60;99.90
23685;DHT22;12020;51.384;6.908;2023-05-27T04:02:58;9.60;99.90
23685;DHT22;12020;51.384;6.908;2023-05-27T04:05:24;9.50;99.90
23685;DHT22;12020;51.384;6.908;2023-05-27T04:08:01;9.40;99.90
23685;DHT22;12020;51.384;6.908;2023-05-27T04:10:34;9.40;99.90
23685;DHT22;12020;51.384;6.908;2023-05-27T04:13:07;9.40;99.90
23685;DHT22;12020;51.384;6.908;2023-05-27T04:15:35;9.50;99.90
23685;DHT22;12020;51.384;6.908;2023-05-27T04:18:11;9.50;99.90
23685;DHT22;12020;51.384;6.908;2023-05-27T04:20:44;9.50;99.90
23685;DHT22;12020;51.384;6.908;2023-05-27T04:23:13;9.60;99.90
23685;DHT22;12020;51.384;6.908;2023-05-27T04:25:47;9.50;99.90
23685;DHT22;12020;51.384;6.908;2023-05-27T04:28:17;9.60;99.90
23685;DHT22;12020;51.384;6.908;2023-05-27T04:30:51;9.60;99.90
23685;DHT22;12020;51.384;6.908;2023-05-27T04:33:21;9.70;99.90
23685;DHT22;12020;51.384;6.908;2023-05-27T04:35:47;9.70;99.90
23685;DHT22;12020;51.384;6.908;2023-05-27T04:38:13;9.70;99.90
23685;DHT22;12020;51.384;6.908;2023-05-27T04:40:51;9.70;99.90
23685;DHT22;12020;51.384;6.908;2023-05-27T04:43:21;9.70;99.90
23685;DHT22;12020;51.384;6.908;2023-05-27T04:45:47;9.70;99.90
23685;DHT22;12020;51.384;6.908;2023-05-27T04:48:14;9.70;99.90
23685;DHT22;12020;51.384;6.908;2023-05-27T04:50:42;9.70;99.90
23685;DHT22;12020;51.384;6.908;2023-05-27T04:53:11;9.80;99.90
23685;DHT22;12020;51.384;6.908;2023-05-27T04:55:37;9.80;99.90
23685;DHT22;12020;51.384;6.908;2023-05-27T04:58:05;10.10;99.90
23685;DHT22;12020;51.384;6.908;2023-05-27T05:00:35;10.20;99.90
23685;DHT22;12020;51.384;6.908;2023-05-27T05:03:04;10.30;99.90
23685;DHT22;12020;51.384;6.908;2023-05-27T05:05:51;10.20;99.90
23685;DHT22;12020;51.384;6.908;2023-05-27T05:08:25;10.20;99.90
23685;DHT22;12020;51.384;6.908;2023-05-27T05:10:51;10.30;99.90
23685;DHT22;12020;51.384;6.908;2023-05-27T05:13:21;10.60;99.90
23685;DHT22;12020;51.384;6.908;2023-05-27T05:15:53;11.00;99.90
23685;DHT22;12020;51.384;6.908;2023-05-27T05:18:22;11.10;99.90
23685;DHT22;12020;51.384;6.908;2023-05-27T05:20:55;11.10;99.90
23685;DHT22;12020;51.384;6.908;2023-05-27T05:23:22;11.00;99.90
23685;DHT22;12020;51.384;6.908;2023-05-27T05:26:00;10.90;99.90
23685;DHT22;12020;51.384;6.908;2023-05-27T05:28:45;10.80;99.90
23685;DHT22;12020;51.384;6.908;2023-05-27T05:31:16;10.80;99.90
23685;DHT22;12020;51.384;6.908;2023-05-27T05:33:47;10.80;99.90
23685;DHT22;12020;51.384;6.908;2023-05-27T05:36:13;10.80;99.90
23685;DHT22;12020;51.384;6.908;2023-05-27T05:38:49;10.80;99.90
23685;DHT22;12020;51.384;6.908;2023-05-27T05:41:16;10.80;99.90
23685;DHT22;12020;51.384;6.908;2023-05-27T05:43:51;10.80;99.90
23685;DHT22;12020;51.384;6.908;2023-05-27T05:46:20;10.90;99.90
23685;DHT22;12020;51.384;6.908;2023-05-27T05:48:46;10.90;99.90
23685;DHT22;12020;51.384;6.908;2023-05-27T05:51:13;10.90;99.90
23685;DHT22;12020;51.384;6.908;2023-05-27T05:53:39;10.90;99.90
23685;DHT22;12020;51.384;6.908;2023-05-27T05:56:05;11.00;99.90
23685;DHT22;12020;51.384;6.908;2023-05-27T05:58:32;11.10;99.90
23685;DHT22;12020;51.384;6.908;2023-05-27T06:01:02;11.10;99.90
23685;DHT22;12020;51.384;6.908;2023-05-27T06:03:31;11.10;99.90
23685;DHT22;12020;51.384;6.908;2023-05-27T06:05:58;11.20;99.90
23685;DHT22;12020;51.384;6.908;2023-05-27T06:08:25;11.30;99.90
23685;DHT22;12020;51.384;6.908;2023-05-27T06:10:50;11.30;99.90
23685;DHT22;12020;51.384;6.908;2023-05-27T06:13:17;11.40;99.90
23685;DHT22;12020;51.384;6.908;2023-05-27T06:15:42;11.30;99.90
23685;DHT22;12020;51.384;6.908;2023-05-27T06:18:08;11.40;99.90
23685;DHT22;12020;51.384;6.908;2023-05-27T06:20:33;11.40;99.90
23685;DHT22;12020;51.384;6.908;2023-05-27T06:22:59;11.40;99.90
23685;DHT22;12020;51.384;6.908;2023-05-27T06:25:25;11.50;99.90
23685;DHT22;12020;51.384;6.908;2023-05-27T06:27:52;11.50;99.90
23685;DHT22;12020;51.384;6.908;2023-05-27T06:30:19;11.50;99.90
23685;DHT22;12020;51.384;6.908;2023-05-27T06:32:47;11.60;99.90
23685;DHT22;12020;51.384;6.908;2023-05-27T06:35:15;11.70;99.90
23685;DHT22;12020;51.384;6.908;2023-05-27T06:37:44;11.70;99.90
23685;DHT22;12020;51.384;6.908;2023-05-27T06:40:13;11.80;99.90
23685;DHT22;12020;51.384;6.908;2023-05-27T06:42:38;11.80;99.90
23685;DHT22;12020;51.384;6.908;2023-05-27T06:45:05;11.90;99.90
23685;DHT22;12020;51.384;6.908;2023-05-27T06:47:31;11.90;99.90
23685;DHT22;12020;51.384;6.908;2023-05-27T06:49:57;12.00;99.90
23685;DHT22;12020;51.384;6.908;2023-05-27T06:52:23;12.00;99.90
23685;DHT22;12020;51.384;6.908;2023-05-27T06:54:49;12.10;99.90
23685;DHT22;12020;51.384;6.908;2023-05-27T06:57:14;12.20;99.90
23685;DHT22;12020;51.384;6.908;2023-05-27T06:59:40;12.30;99.90
23685;DHT22;12020;51.384;6.908;2023-05-27T07:02:06;12.40;99.90
23685;DHT22;12020;51.384;6.908;2023-05-27T07:04:33;12.40;99.90
23685;DHT22;12020;51.384;6.908;2023-05-27T07:06:59;12.50;99.90
23685;DHT22;12020;51.384;6.908;2023-05-27T07:09:25;12.50;99.90
23685;DHT22;12020;51.384;6.908;2023-05-27T07:11:51;12.60;99.90
23685;DHT22;12020;51.384;6.908;2023-05-27T07:14:17;12.70;99.90
23685;DHT22;12020;51.384;6.908;2023-05-27T07:16:42;12.80;99.90
23685;DHT22;12020;51.384;6.908;2023-05-27T07:19:08;12.90;99.90
23685;DHT22;12020;51.384;6.908;2023-05-27T07:21:34;13.00;99.90
23685;DHT22;12020;51.384;6.908;2023-05-27T07:24:00;13.10;99.90
23685;DHT22;12020;51.384;6.908;2023-05-27T07:26:31;13.20;99.90
23685;DHT22;12020;51.384;6.908;2023-05-27T07:29:00;13.30;99.90
23685;DHT22;12020;51.384;6.908;2023-05-27T07:31:28;13.40;99.90
23685;DHT22;12020;51.384;6.908;2023-05-27T07:33:54;13.50;99.90
23685;DHT22;12020;51.384;6.908;2023-05-27T07:36:20;13.60;99.90
23685;DHT22;12020;51.384;6.908;2023-05-27T07:38:46;13.80;99.90
23685;DHT22;12020;51.384;6.908;2023-05-27T07:41:13;14.00;99.90
23685;DHT22;12020;51.384;6.908;2023-05-27T07:43:40;14.10;99.90
23685;DHT22;12020;51.384;6.908;2023-05-27T07:46:08;14.30;99.90
23685;DHT22;12020;51.384;6.908;2023-05-27T07:48:37;14.50;99.90
23685;DHT22;12020;51.384;6.908;2023-05-27T07:51:05;14.70;99.90
23685;DHT22;12020;51.384;6.908;2023-05-27T07:53:30;15.00;99.90
23685;DHT22;12020;51.384;6.908;2023-05-27T07:55:56;15.20;99.90
23685;DHT22;12020;51.384;6.908;2023-05-27T07:58:27;15.40;99.90
23685;DHT22;12020;51.384;6.908;2023-05-27T08:01:16;15.70;99.90
23685;DHT22;12020;51.384;6.908;2023-05-27T08:03:42;16.10;99.90
23685;DHT22;12020;51.384;6.908;2023-05-27T08:06:26;16.30;99.90
23685;DHT22;12020;51.384;6.908;2023-05-27T08:09:09;16.50;99.90
23685;DHT22;12020;51.384;6.908;2023-05-27T08:11:35;16.80;99.90
23685;DHT22;12020;51.384;6.908;2023-05-27T08:14:17;17.00;99.90
23685;DHT22;12020;51.384;6.908;2023-05-27T08:16:46;17.30;99.90
23685;DHT22;12020;51.384;6.908;2023-05-27T08:19:11;17.50;99.90
23685;DHT22;12020;51.384;6.908;2023-05-27T10:09:30;22.80;99.90
23685;DHT22;12020;51.384;6.908;2023-05-27T10:11:57;22.80;97.80
23685;DHT22;12020;51.384;6.908;2023-05-27T10:14:48;22.80;97.10
23685;DHT22;12020;51.384;6.908;2023-05-27T10:17:14;22.80;96.30
23685;DHT22;12020;51.384;6.908;2023-05-27T10:19:56;22.80;96.90
23685;DHT22;12020;51.384;6.908;2023-05-27T10:22:53;22.80;95.90
23685;DHT22;12020;51.384;6.908;2023-05-27T10:25:21;22.70;95.40
23685;DHT22;12020;51.384;6.908;2023-05-27T10:27:50;22.70;94.90
23685;DHT22;12020;51.384;6.908;2023-05-27T11:01:31;22.80;94.50
23685;DHT22;12020;51.384;6.908;2023-05-27T11:04:06;22.70;93.90
23685;DHT22;12020;51.384;6.908;2023-05-27T11:06:38;22.70;95.40
23685;DHT22;12020;51.384;6.908;2023-05-27T11:09:09;22.70;95.20
23685;DHT22;12020;51.384;6.908;2023-05-27T11:11:44;22.90;95.30
23685;DHT22;12020;51.384;6.908;2023-05-27T11:14:15;23.00;95.40
23685;DHT22;12020;51.384;6.908;2023-05-27T11:16:52;23.00;93.60
23685;DHT22;12020;51.384;6.908;2023-05-27T13:16:45;22.80;91.70
23685;DHT22;12020;51.384;6.908;2023-05-27T14:05:48;22.80;92.80
23685;DHT22;12020;51.384;6.908;2023-05-27T15:22:21;22.60;94.30
23685;DHT22;12020;51.384;6.908;2023-05-27T15:24:47;22.50;92.30
23685;DHT22;12020;51.384;6.908;2023-05-27T15:27:12;22.40;93.00
23685;DHT22;12020;51.384;6.908;2023-05-27T15:29:38;22.40;94.00
23685;DHT22;12020;51.384;6.908;2023-05-27T15:32:04;22.40;93.20
23685;DHT22;12020;51.384;6.908;2023-05-27T15:34:29;22.40;93.30
23685;DHT22;12020;51.384;6.908;2023-05-27T15:36:55;22.40;93.30
23685;DHT22;12020;51.384;6.908;2023-05-27T15:39:21;22.30;93.10
23685;DHT22;12020;51.384;6.908;2023-05-27T15:41:46;22.30;92.70
23685;DHT22;12020;51.384;6.908;2023-05-27T15:44:12;22.30;92.20
23685;DHT22;12020;51.384;6.908;2023-05-27T15:46:37;22.30;92.60
23685;DHT22;12020;51.384;6.908;2023-05-27T15:49:03;22.30;92.40
23685;DHT22;12020;51.384;6.908;2023-05-27T15:51:29;22.30;93.60
23685;DHT22;12020;51.384;6.908;2023-05-27T15:53:55;22.30;92.70
23685;DHT22;12020;51.384;6.908;2023-05-27T15:56:20;22.30;92.90
23685;DHT22;12020;51.384;6.908;2023-05-27T15:58:46;22.30;92.90
23685;DHT22;12020;51.384;6.908;2023-05-27T16:01:12;22.30;94.00
23685;DHT22;12020;51.384;6.908;2023-05-27T16:03:37;22.20;93.80
23685;DHT22;12020;51.384;6.908;2023-05-27T16:06:03;22.20;93.60
23685;DHT22;12020;51.384;6.908;2023-05-27T16:08:31;22.20;93.20
23685;DHT22;12020;51.384;6.908;2023-05-27T16:10:56;22.20;93.00
23685;DHT22;12020;51.384;6.908;2023-05-27T16:13:23;22.20;93.80
23685;DHT22;12020;51.384;6.908;2023-05-27T16:15:49;22.20;93.70
23685;DHT22;12020;51.384;6.908;2023-05-27T16:18:15;22.20;94.00
23685;DHT22;12020;51.384;6.908;2023-05-27T16:20:47;22.20;93.80
23685;DHT22;12020;51.384;6.908;2023-05-27T16:23:13;22.20;93.80
23685;DHT22;12020;51.384;6.908;2023-05-27T16:25:39;22.10;93.40
23685;DHT22;12020;51.384;6.908;2023-05-27T16:28:05;22.10;93.30
23685;DHT22;12020;51.384;6.908;2023-05-27T16:30:31;22.10;93.00
23685;DHT22;12020;51.384;6.908;2023-05-27T16:32:56;22.00;93.00
23685;DHT22;12020;51.384;6.908;2023-05-27T16:35:23;22.00;93.30
23685;DHT22;12020;51.384;6.908;2023-05-27T16:37:49;22.00;92.90
23685;DHT22;12020;51.384;6.908;2023-05-27T16:40:15;21.90;93.00
23685;DHT22;12020;51.384;6.908;2023-05-27T16:42:41;22.00;93.40
23685;DHT22;12020;51.384;6.908;2023-05-27T16:45:08;22.00;93.60
23685;DHT22;12020;51.384;6.908;2023-05-27T16:47:35;22.00;93.20
23685;DHT22;12020;51.384;6.908;2023-05-27T16:50:02;21.90;93.80
23685;DHT22;12020;51.384;6.908;2023-05-27T16:52:27;21.90;93.50
23685;DHT22;12020;51.384;6.908;2023-05-27T16:54:54;21.90;93.40
23685;DHT22;12020;51.384;6.908;2023-05-27T16:57:20;21.90;92.80
23685;DHT22;12020;51.384;6.908;2023-05-27T16:59:47;21.90;93.00
23685;DHT22;12020;51.384;6.908;2023-05-27T17:02:13;21.90;93.30
23685;DHT22;12020;51.384;6.908;2023-05-27T17:04:42;21.90;93.30
23685;DHT22;12020;51.384;6.908;2023-05-27T17:07:07;21.80;93.10
23685;DHT22;12020;51.384;6.908;2023-05-27T17:09:36;21.90;93.10
23685;DHT22;12020;51.384;6.908;2023-05-27T17:12:05;21.80;92.70
23685;DHT22;12020;51.384;6.908;2023-05-27T17:14:31;21.80;92.80
23685;DHT22;12020;51.384;6.908;2023-05-27T17:16:58;21.80;92.90
23685;DHT22;12020;51.384;6.908;2023-05-27T17:19:24;21.80;93.10
23685;DHT22;12020;51.384;6.908;2023-05-27T17:21:50;21.80;92.30
23685;DHT22;12020;51.384;6.908;2023-05-27T17:24:15;21.80;92.30
23685;DHT22;12020;51.384;6.908;2023-05-27T17:26:41;21.70;92.10
23685;DHT22;12020;51.384;6.908;2023-05-27T17:29:07;21.70;92.20
23685;DHT22;12020;51.384;6.908;2023-05-27T17:31:33;21.70;92.50
23685;DHT22;12020;51.384;6.908;2023-05-27T17:33:58;21.70;93.00
23685;DHT22;12020;51.384;6.908;2023-05-27T17:36:24;21.70;92.80
23685;DHT22;12020;51.384;6.908;2023-05-27T17:38:49;21.70;93.30
23685;DHT22;12020;51.384;6.908;2023-05-27T17:41:15;21.60;92.70
23685;DHT22;12020;51.384;6.908;2023-05-27T17:43:42;21.60;92.80
23685;DHT22;12020;51.384;6.908;2023-05-27T17:46:07;21.60;93.00
23685;DHT22;12020;51.384;6.908;2023-05-27T17:48:34;21.50;92.50
23685;DHT22;12020;51.384;6.908;2023-05-27T17:51:00;21.50;91.80
23685;DHT22;12020;51.384;6.908;2023-05-27T17:53:25;21.50;92.00
23685;DHT22;12020;51.384;6.908;2023-05-27T17:55:51;21.50;92.90
23685;DHT22;12020;51.384;6.908;2023-05-27T17:58:16;21.40;92.00
23685;DHT22;12020;51.384;6.908;2023-05-27T18:00:42;21.40;92.70
23685;DHT22;12020;51.384;6.908;2023-05-27T18:03:08;21.30;92.40
23685;DHT22;12020;51.384;6.908;2023-05-27T18:05:34;21.30;91.60
23685;DHT22;12020;51.384;6.908;2023-05-27T18:08:00;21.20;91.80
23685;DHT22;12020;51.384;6.908;2023-05-27T18:10:27;21.20;91.60
23685;DHT22;12020;51.384;6.908;2023-05-27T18:12:54;21.20;91.80
23685;DHT22;12020;51.384;6.908;2023-05-27T18:15:20;21.10;91.50
23685;DHT22;12020;51.384;6.908;2023-05-27T18:17:46;21.10;91.80
23685;DHT22;12020;51.384;6.908;2023-05-27T18:20:11;21.10;92.20
23685;DHT22;12020;51.384;6.908;2023-05-27T18:22:38;21.10;92.10
23685;DHT22;12020;51.384;6.908;2023-05-27T18:25:05;21.10;91.60
23685;DHT22;12020;51.384;6.908;2023-05-27T18:27:34;21.00;91.80
23685;DHT22;12020;51.384;6.908;2023-05-27T18:30:00;21.00;91.90
23685;DHT22;12020;51.384;6.908;2023-05-27T18:32:25;20.90;92.00
23685;DHT22;12020;51.384;6.908;2023-05-27T18:34:51;20.80;92.30
23685;DHT22;12020;51.384;6.908;2023-05-27T18:37:19;20.80;92.50
23685;DHT22;12020;51.384;6.908;2023-05-27T18:39:45;20.70;92.80
23685;DHT22;12020;51.384;6.908;2023-05-27T18:42:11;20.70;93.30
23685;DHT22;12020;51.384;6.908;2023-05-27T18:44:37;20.60;93.40
23685;DHT22;12020;51.384;6.908;2023-05-27T18:47:03;20.60;93.80
23685;DHT22;12020;51.384;6.908;2023-05-27T18:49:29;20.50;93.60
23685;DHT22;12020;51.384;6.908;2023-05-27T18:51:55;20.50;94.10
23685;DHT22;12020;51.384;6.908;2023-05-27T18:54:22;20.50;96.10
23685;DHT22;12020;51.384;6.908;2023-05-27T18:56:48;20.30;97.00
23685;DHT22;12020;51.384;6.908;2023-05-27T18:59:14;20.30;96.90
23685;DHT22;12020;51.384;6.908;2023-05-27T19:01:41;20.20;96.60
23685;DHT22;12020;51.384;6.908;2023-05-27T19:04:07;20.10;96.60
23685;DHT22;12020;51.384;6.908;2023-05-27T19:06:33;20.10;98.50
23685;DHT22;12020;51.384;6.908;2023-05-27T19:09:00;20.00;99.50
23685;DHT22;12020;51.384;6.908;2023-05-27T19:11:26;19.90;99.90
23685;DHT22;12020;51.384;6.908;2023-05-27T19:13:53;19.70;99.90
23685;DHT22;12020;51.384;6.908;2023-05-27T19:16:18;19.60;99.90
23685;DHT22;12020;51.384;6.908;2023-05-27T19:18:45;19.40;99.90
23685;DHT22;12020;51.384;6.908;2023-05-27T19:21:11;19.30;99.90
23685;DHT22;12020;51.384;6.908;2023-05-27T19:23:37;19.20;99.90
23685;DHT22;12020;51.384;6.908;2023-05-27T19:26:03;19.10;99.90
23685;DHT22;12020;51.384;6.908;2023-05-27T19:28:29;19.00;99.90
23685;DHT22;12020;51.384;6.908;2023-05-27T19:30:55;18.90;99.90
23685;DHT22;12020;51.384;6.908;2023-05-27T19:33:21;18.70;99.90
23685;DHT22;12020;51.384;6.908;2023-05-27T19:35:47;18.60;99.90
23685;DHT22;12020;51.384;6.908;2023-05-27T19:38:13;18.50;99.90
23685;DHT22;12020;51.384;6.908;2023-05-27T19:40:39;18.50;99.90
23685;DHT22;12020;51.384;6.908;2023-05-27T19:43:05;18.40;99.90
23685;DHT22;12020;51.384;6.908;2023-05-27T19:45:31;18.30;99.90
23685;DHT22;12020;51.384;6.908;2023-05-27T19:47:57;18.10;99.90
23685;DHT22;12020;51.384;6.908;2023-05-27T19:50:24;18.10;99.90
23685;DHT22;12020;51.384;6.908;2023-05-27T19:52:51;17.90;99.90
23685;DHT22;12020;51.384;6.908;2023-05-27T19:55:17;17.80;99.90
23685;DHT22;12020;51.384;6.908;2023-05-27T19:57:43;17.80;99.90
23685;DHT22;12020;51.384;6.908;2023-05-27T20:00:10;17.70;99.90
23685;DHT22;12020;51.384;6.908;2023-05-27T20:02:37;17.70;99.90
23685;DHT22;12020;51.384;6.908;2023-05-27T20:05:05;17.60;99.90
23685;DHT22;12020;51.384;6.908;2023-05-27T20:07:34;17.50;99.90
23685;DHT22;12020;51.384;6.908;2023-05-27T20:10:00;17.50;99.90
23685;DHT22;12020;51.384;6.908;2023-05-27T20:15:01;17.40;99.90
23685;DHT22;12020;51.384;6.908;2023-05-27T20:17:27;17.40;99.90
23685;DHT22;12020;51.384;6.908;2023-05-27T20:19:53;17.30;99.90
23685;DHT22;12020;51.384;6.908;2023-05-27T20:22:21;17.30;99.90
23685;DHT22;12020;51.384;6.908;2023-05-27T20:24:47;17.20;99.90
23685;DHT22;12020;51.384;6.908;2023-05-27T20:27:13;17.10;99.90
23685;DHT22;12020;51.384;6.908;2023-05-27T20:29:39;17.10;99.90
23685;DHT22;12020;51.384;6.908;2023-05-27T20:32:05;17.00;99.90
23685;DHT22;12020;51.384;6.908;2023-05-27T20:34:32;16.90;99.90
23685;DHT22;12020;51.384;6.908;2023-05-27T20:36:58;16.80;99.90
23685;DHT22;12020;51.384;6.908;2023-05-27T20:39:33;16.80;99.90
23685;DHT22;12020;51.384;6.908;2023-05-27T20:41:58;16.70;99.90
23685;DHT22;12020;51.384;6.908;2023-05-27T20:44:25;16.60;99.90
23685;DHT22;12020;51.384;6.908;2023-05-27T20:46:51;16.60;99.90
23685;DHT22;12020;51.384;6.908;2023-05-27T20:49:17;16.50;99.90
23685;DHT22;12020;51.384;6.908;2023-05-27T20:51:43;16.50;99.90
23685;DHT22;12020;51.384;6.908;2023-05-27T20:54:09;16.40;99.90
23685;DHT22;12020;51.384;6.908;2023-05-27T20:56:35;16.40;99.90
23685;DHT22;12020;51.384;6.908;2023-05-27T20:59:01;16.30;99.90
23685;DHT22;12020;51.384;6.908;2023-05-27T21:01:27;16.30;99.90
23685;DHT22;12020;51.384;6.908;2023-05-27T21:03:57;16.30;99.90
23685;DHT22;12020;51.384;6.908;2023-05-27T21:06:23;16.20;99.90
23685;DHT22;12020;51.384;6.908;2023-05-27T21:08:50;16.20;99.90
23685;DHT22;12020;51.384;6.908;2023-05-27T21:11:16;16.20;99.90
23685;DHT22;12020;51.384;6.908;2023-05-27T21:13:43;16.10;99.90
23685;DHT22;12020;51.384;6.908;2023-05-27T21:16:10;16.10;99.90
23685;DHT22;12020;51.384;6.908;2023-05-27T21:18:36;16.00;99.90
23685;DHT22;12020;51.384;6.908;2023-05-27T21:21:02;16.00;99.90
23685;DHT22;12020;51.384;6.908;2023-05-27T21:23:28;15.90;99.90
23685;DHT22;12020;51.384;6.908;2023-05-27T21:25:55;15.90;99.90
23685;DHT22;12020;51.384;6.908;2023-05-27T21:28:20;15.90;99.90
23685;DHT22;12020;51.384;6.908;2023-05-27T21:30:47;15.80;99.90
23685;DHT22;12020;51.384;6.908;2023-05-27T21:33:12;15.80;99.90
23685;DHT22;12020;51.384;6.908;2023-05-27T21:35:39;15.80;99.90
23685;DHT22;12020;51.384;6.908;2023-05-27T21:38:05;15.70;99.90
23685;DHT22;12020;51.384;6.908;2023-05-27T21:40:32;15.70;99.90
23685;DHT22;12020;51.384;6.908;2023-05-27T21:42:58;15.60;99.90
23685;DHT22;12020;51.384;6.908;2023-05-27T21:45:24;15.60;99.90
23685;DHT22;12020;51.384;6.908;2023-05-27T21:47:50;15.60;99.90
23685;DHT22;12020;51.384;6.908;2023-05-27T21:50:16;15.50;99.90
23685;DHT22;12020;51.384;6.908;2023-05-27T21:52:44;15.50;99.90
23685;DHT22;12020;51.384;6.908;2023-05-27T21:55:10;15.40;99.90
23685;DHT22;12020;51.384;6.908;2023-05-27T21:57:36;15.40;99.90
23685;DHT22;12020;51.384;6.908;2023-05-27T22:00:06;15.40;99.90
23685;DHT22;12020;51.384;6.908;2023-05-27T22:02:37;15.30;99.90
23685;DHT22;12020;51.384;6.908;2023-05-27T22:05:05;15.30;99.90